createdAt,value
2023-05-19T00:01:22.158Z,101045.81
2023-05-19T00:04:24.840Z,101047.59
2023-05-19T00:07:31.094Z,101048.22
2023-05-19T00:10:33.917Z,101021.94
2023-05-19T00:13:36.899Z,101051.34
2023-05-19T00:16:39.749Z,101060.63
2023-05-19T00:19:42.474Z,101036.38
2023-05-19T00:22:44.981Z,101021.94
2023-05-19T00:25:47.448Z,101016.03
2023-05-19T00:28:50.950Z,101047.94
2023-05-19T00:31:53.420Z,101015.75
2023-05-19T00:34:55.929Z,101021.72
2023-05-19T00:37:58.403Z,101023.31
2023-05-19T00:41:02.111Z,101036.94
2023-05-19T00:44:04.835Z,101047.28
2023-05-19T00:47:08.325Z,101043.56
2023-05-19T00:50:10.999Z,101023.13
2023-05-19T00:53:14.978Z,101038.13
2023-05-19T00:56:18.394Z,101020.69
2023-05-19T00:59:21.098Z,101050.47
2023-05-19T01:02:24.080Z,101016.78
2023-05-19T01:05:26.889Z,101022.03
2023-05-19T01:08:31.688Z,101050.75
2023-05-19T01:11:34.122Z,101049.72
2023-05-19T01:14:36.611Z,101050.75
2023-05-19T01:17:54.794Z,101024.28
2023-05-19T01:21:44.493Z,101002.25
2023-05-19T01:24:54.844Z,101058.44
2023-05-19T01:28:02.890Z,101048.88
2023-05-19T01:31:07.475Z,101019.81
2023-05-19T01:34:13.116Z,101034.03
2023-05-19T01:37:17.738Z,101036.63
2023-05-19T01:40:23.869Z,101030.47
2023-05-19T01:43:27.153Z,101021.41
2023-05-19T01:46:29.669Z,101035.00
2023-05-19T01:49:32.192Z,101027.97
2023-05-19T01:52:34.621Z,101006.06
2023-05-19T01:55:44.839Z,100999.34
2023-05-19T01:58:53.101Z,100998.16
2023-05-19T02:02:00.530Z,101007.00
2023-05-19T02:05:18.649Z,100999.78
2023-05-19T02:08:25.949Z,101022.19
2023-05-19T02:11:40.035Z,101020.31
2023-05-19T02:14:49.702Z,101011.78
2023-05-19T02:17:55.654Z,100994.50
2023-05-19T02:20:58.290Z,100998.97
2023-05-19T02:24:00.872Z,100998.28
2023-05-19T02:27:03.874Z,100989.78
2023-05-19T02:30:08.307Z,100992.22
2023-05-19T02:33:12.512Z,101008.50
2023-05-19T02:36:15.136Z,100998.13
2023-05-19T02:39:17.827Z,101006.03
2023-05-19T02:42:20.960Z,100996.41
2023-05-19T02:45:23.913Z,101022.94
2023-05-19T02:48:26.379Z,101020.22
2023-05-19T02:51:28.794Z,101025.59
2023-05-19T02:54:31.796Z,101033.22
2023-05-19T02:57:35.036Z,101020.38
2023-05-19T03:00:37.514Z,101043.09
2023-05-19T03:03:40.042Z,101043.09
2023-05-19T03:06:42.578Z,101047.47
2023-05-19T03:09:45.003Z,101054.56
2023-05-19T03:12:47.378Z,101026.41
2023-05-19T03:15:51.210Z,101043.44
2023-05-19T03:18:53.877Z,101026.28
2023-05-19T03:21:56.571Z,101042.25
2023-05-19T03:24:59.129Z,101022.59
2023-05-19T03:28:01.744Z,101025.03
2023-05-19T03:31:04.294Z,101023.72
2023-05-19T03:34:11.900Z,101045.44
2023-05-19T03:37:14.384Z,101040.00
2023-05-19T03:40:18.924Z,101041.53
2023-05-19T03:43:21.623Z,101013.44
2023-05-19T03:46:29.740Z,101041.44
2023-05-19T03:49:46.012Z,101025.00
2023-05-19T03:53:07.286Z,101039.22
2023-05-19T03:56:18.135Z,101028.03
2023-05-19T03:59:20.646Z,101056.53
2023-05-19T04:02:23.095Z,101065.22
2023-05-19T04:05:25.791Z,101066.72
2023-05-19T04:08:29.436Z,101073.84
2023-05-19T04:11:32.023Z,101077.09
2023-05-19T04:14:34.449Z,101076.63
2023-05-19T04:17:37.143Z,101083.25
2023-05-19T04:20:39.593Z,101058.69
2023-05-19T04:23:42.154Z,101073.78
2023-05-19T04:26:47.095Z,101091.69
2023-05-19T04:29:51.245Z,101090.72
2023-05-19T04:32:53.797Z,101091.84
2023-05-19T04:35:56.840Z,101077.00
2023-05-19T04:39:02.767Z,101053.50
2023-05-19T04:42:06.470Z,101087.78
2023-05-19T04:45:10.452Z,101061.06
2023-05-19T04:48:15.955Z,101061.03
2023-05-19T04:51:18.375Z,101064.06
2023-05-19T04:54:21.389Z,101076.03
2023-05-19T04:57:23.919Z,101075.16
2023-05-19T05:00:26.771Z,101056.94
2023-05-19T05:03:35.458Z,101048.78
2023-05-19T05:06:42.520Z,101073.75
2023-05-19T05:09:45.576Z,101077.84
2023-05-19T05:12:48.336Z,101068.91
2023-05-19T05:15:54.578Z,101076.34
2023-05-19T05:18:57.867Z,101068.38
2023-05-19T05:22:01.006Z,101053.41
2023-05-19T05:25:04.287Z,101076.00
2023-05-19T05:28:06.808Z,101054.00
2023-05-19T05:31:11.753Z,101076.06
2023-05-19T05:34:17.681Z,101069.34
2023-05-19T05:37:20.509Z,101090.59
2023-05-19T05:40:22.992Z,101085.91
2023-05-19T05:43:25.853Z,101085.50
2023-05-19T05:46:33.569Z,101048.56
2023-05-19T05:49:38.154Z,101097.63
2023-05-19T05:52:42.572Z,101088.59
2023-05-19T05:55:47.206Z,101089.19
2023-05-19T05:58:50.747Z,101099.25
2023-05-19T06:01:53.270Z,101103.00
2023-05-19T06:04:56.280Z,101105.84
2023-05-19T06:07:58.868Z,101087.41
2023-05-19T06:11:08.456Z,101091.53
2023-05-19T06:14:11.837Z,101091.72
2023-05-19T06:17:37.418Z,101095.94
2023-05-19T06:20:39.899Z,101088.16
2023-05-19T06:23:42.458Z,101078.41
2023-05-19T06:26:46.390Z,101089.72
2023-05-19T06:29:48.884Z,101084.25
2023-05-19T06:32:51.354Z,101115.81
2023-05-19T06:35:53.903Z,101122.00
2023-05-19T06:38:57.664Z,101081.53
2023-05-19T06:42:00.890Z,101116.50
2023-05-19T06:45:23.947Z,101099.75
2023-05-19T06:48:27.575Z,101113.88
2023-05-19T06:51:30.088Z,101093.66
2023-05-19T06:54:32.739Z,101120.38
2023-05-19T06:57:36.249Z,101108.56
2023-05-19T07:00:39.373Z,101115.72
2023-05-19T07:03:44.163Z,101129.50
2023-05-19T07:06:50.251Z,101111.53
2023-05-19T07:09:53.188Z,101128.00
2023-05-19T07:12:58.213Z,101117.22
2023-05-19T07:16:04.172Z,101136.88
2023-05-19T07:19:06.771Z,101136.00
2023-05-19T07:22:09.328Z,101125.00
2023-05-19T07:25:11.796Z,101133.09
2023-05-19T07:28:15.025Z,101116.25
2023-05-19T07:31:17.624Z,101125.88
2023-05-19T07:34:20.900Z,101119.97
2023-05-19T07:37:23.367Z,101124.72
2023-05-19T07:40:25.783Z,101116.84
2023-05-19T07:43:28.281Z,101117.56
2023-05-19T07:46:30.800Z,101092.72
2023-05-19T07:49:33.291Z,101108.66
2023-05-19T07:52:35.933Z,101092.28
2023-05-19T07:55:38.329Z,101106.78
2023-05-19T07:58:40.846Z,101110.03
2023-05-19T08:01:43.365Z,101102.09
2023-05-19T08:04:45.912Z,101117.69
2023-05-19T08:07:48.463Z,101099.31
2023-05-19T08:10:50.998Z,101104.00
2023-05-19T08:13:53.606Z,101094.88
2023-05-19T08:16:56.369Z,101098.41
2023-05-19T08:20:00.387Z,101092.81
2023-05-19T08:23:02.849Z,101103.34
2023-05-19T08:26:05.690Z,101110.78
2023-05-19T08:29:08.165Z,101102.78
2023-05-19T08:32:13.045Z,101111.00
2023-05-19T08:35:15.940Z,101111.66
2023-05-19T08:38:18.442Z,101104.63
2023-05-19T08:41:21.787Z,101112.66
2023-05-19T08:44:24.189Z,101113.47
2023-05-19T08:47:27.970Z,101103.00
2023-05-19T08:50:36.445Z,101112.81
2023-05-19T08:53:44.064Z,101102.94
2023-05-19T08:56:47.302Z,101101.44
2023-05-19T08:59:54.349Z,101087.91
2023-05-19T09:03:05.982Z,101105.25
2023-05-19T09:06:19.771Z,101107.94
2023-05-19T09:09:22.289Z,101120.72
2023-05-19T09:12:24.741Z,101123.84
2023-05-19T09:15:28.422Z,101106.91
2023-05-19T09:18:31.503Z,101119.66
2023-05-19T09:21:34.055Z,101110.81
2023-05-19T09:24:37.935Z,101103.88
2023-05-19T09:27:40.366Z,101099.63
2023-05-19T09:30:42.766Z,101097.09
2023-05-19T09:33:46.281Z,101117.88
2023-05-19T09:36:53.439Z,101103.97
2023-05-19T09:39:56.602Z,101107.00
2023-05-19T09:42:59.052Z,101104.97
2023-05-19T09:46:09.604Z,101086.72
2023-05-19T09:49:14.351Z,101083.44
2023-05-19T09:52:16.797Z,101079.84
2023-05-19T09:55:23.265Z,101092.81
2023-05-19T09:58:27.100Z,101075.91
2023-05-19T10:01:33.697Z,101091.97
2023-05-19T10:04:36.661Z,101092.75
2023-05-19T10:07:40.583Z,101075.91
2023-05-19T10:10:43.371Z,101080.38
2023-05-19T10:13:47.205Z,101059.81
2023-05-19T10:16:52.448Z,101077.50
2023-05-19T10:19:55.214Z,101074.88
2023-05-19T10:22:57.638Z,101059.81
2023-05-19T10:26:04.159Z,101071.69
2023-05-19T10:29:06.957Z,101048.09
2023-05-19T10:32:17.581Z,101044.44
2023-05-19T10:35:22.615Z,101060.78
2023-05-19T10:38:43.119Z,101057.06
2023-05-19T10:42:07.143Z,101053.63
2023-05-19T10:45:16.328Z,101059.66
2023-05-19T10:48:23.085Z,101033.28
2023-05-19T10:51:32.185Z,101032.69
2023-05-19T10:54:43.452Z,101036.69
2023-05-19T10:57:58.577Z,101032.75
2023-05-19T11:01:01.582Z,101026.97
2023-05-19T11:04:06.318Z,101038.16
2023-05-19T11:07:10.534Z,101012.91
2023-05-19T11:10:13.331Z,101019.34
2023-05-19T11:13:22.705Z,101029.09
2023-05-19T11:16:28.657Z,101023.75
2023-05-19T11:19:34.478Z,101007.63
2023-05-19T11:22:37.205Z,101013.91
2023-05-19T11:25:47.093Z,101017.66
2023-05-19T11:28:49.761Z,101006.44
2023-05-19T11:31:52.311Z,101002.50
2023-05-19T11:34:56.087Z,100985.72
2023-05-19T11:37:59.113Z,101006.00
2023-05-19T11:41:01.595Z,100995.53
2023-05-19T11:44:04.058Z,100982.16
2023-05-19T11:47:06.744Z,100980.19
2023-05-19T11:50:11.433Z,100980.25
2023-05-19T11:53:14.831Z,100969.91
2023-05-19T11:56:17.240Z,100985.13
2023-05-19T11:59:34.829Z,100986.84
2023-05-19T12:02:38.189Z,100986.69
2023-05-19T12:05:46.006Z,100965.41
2023-05-19T12:08:51.963Z,100955.81
2023-05-19T12:11:55.186Z,100973.56
2023-05-19T12:14:57.722Z,100978.31
2023-05-19T12:18:02.014Z,100968.69
2023-05-19T12:21:05.115Z,100958.81
2023-05-19T12:24:07.736Z,100964.50
2023-05-19T12:27:14.277Z,100963.84
2023-05-19T12:30:17.056Z,100971.28
2023-05-19T12:33:22.951Z,100963.09
2023-05-19T12:36:25.494Z,100942.47
2023-05-19T12:39:28.941Z,100945.91
2023-05-19T12:42:31.666Z,100931.69
2023-05-19T12:45:35.480Z,100950.09
2023-05-19T12:48:43.277Z,100946.50
2023-05-19T12:51:52.476Z,100955.72
2023-05-19T12:55:07.196Z,100940.31
2023-05-19T12:58:11.574Z,100928.72
2023-05-19T13:01:18.793Z,100927.56
2023-05-19T13:04:21.332Z,100939.41
2023-05-19T13:07:24.452Z,100935.03
2023-05-19T13:10:27.841Z,100913.50
2023-05-19T13:13:30.242Z,100910.28
2023-05-19T13:16:32.651Z,100897.44
2023-05-19T13:19:35.128Z,100909.41
2023-05-19T13:22:37.944Z,100910.63
2023-05-19T13:25:41.405Z,100912.50
2023-05-19T13:28:43.886Z,100890.84
2023-05-19T13:31:46.379Z,100886.50
2023-05-19T13:34:48.997Z,100879.38
2023-05-19T13:37:51.390Z,100903.34
2023-05-19T13:40:53.883Z,100899.97
2023-05-19T13:43:59.787Z,100889.53
2023-05-19T13:47:02.331Z,100878.41
2023-05-19T13:50:05.774Z,100893.13
2023-05-19T13:53:08.495Z,100889.75
2023-05-19T13:56:10.977Z,100879.97
2023-05-19T13:59:13.611Z,100864.00
2023-05-19T14:02:16.288Z,100864.25
2023-05-19T14:05:18.834Z,100878.44
2023-05-19T14:08:22.139Z,100859.41
2023-05-19T14:11:24.658Z,100872.31
2023-05-19T14:14:27.193Z,100872.47
2023-05-19T14:17:29.647Z,100852.75
2023-05-19T14:20:32.351Z,100881.78
2023-05-19T14:23:34.900Z,100852.34
2023-05-19T14:26:37.267Z,100870.22
2023-05-19T14:29:39.744Z,100851.84
2023-05-19T14:32:42.225Z,100849.66
2023-05-19T14:35:44.756Z,100853.09
2023-05-19T14:38:47.186Z,100856.84
2023-05-19T14:41:51.045Z,100863.88
2023-05-19T14:44:53.498Z,100876.59
2023-05-19T14:47:56.043Z,100876.31
2023-05-19T14:50:58.468Z,100857.44
2023-05-19T14:54:02.310Z,100865.91
2023-05-19T14:57:07.295Z,100858.47
2023-05-19T15:00:10.437Z,100852.00
2023-05-19T15:03:14.789Z,100851.16
2023-05-19T15:06:17.447Z,100868.56
2023-05-19T15:09:19.871Z,100860.16
2023-05-19T15:12:22.407Z,100852.00
2023-05-19T15:15:24.831Z,100863.06
2023-05-19T15:18:27.250Z,100859.06
2023-05-19T15:21:29.701Z,100852.13
2023-05-19T15:24:32.121Z,100871.97
2023-05-19T15:27:36.349Z,100865.91
2023-05-19T15:30:38.803Z,100874.47
2023-05-19T15:33:41.388Z,100870.13
2023-05-19T15:36:43.921Z,100862.59
2023-05-19T15:39:46.376Z,100857.16
2023-05-19T15:42:48.784Z,100868.72
2023-05-19T15:45:54.863Z,100879.94
2023-05-19T15:48:57.276Z,100862.22
2023-05-19T15:51:59.652Z,100839.66
2023-05-19T15:55:02.092Z,100873.13
2023-05-19T15:58:04.579Z,100868.38
2023-05-19T16:01:07.441Z,100864.88
2023-05-19T16:04:09.911Z,100831.44
2023-05-19T16:07:12.300Z,100867.44
2023-05-19T16:10:14.860Z,100862.56
2023-05-19T16:13:17.304Z,100867.00
2023-05-19T16:16:19.823Z,100858.59
2023-05-19T16:19:23.854Z,100876.22
2023-05-19T16:22:27.217Z,100851.66
2023-05-19T16:25:29.789Z,100878.66
2023-05-19T16:28:32.569Z,100853.06
2023-05-19T16:31:35.016Z,100874.06
2023-05-19T16:34:37.472Z,100883.38
2023-05-19T16:37:40.198Z,100878.31
2023-05-19T16:40:42.613Z,100882.38
2023-05-19T16:43:45.026Z,100879.41
2023-05-19T16:46:47.455Z,100873.13
2023-05-19T16:49:49.834Z,100885.44
2023-05-19T16:52:52.202Z,100879.50
2023-05-19T16:55:54.693Z,100892.72
2023-05-19T16:58:57.137Z,100872.31
2023-05-19T17:01:59.615Z,100885.53
2023-05-19T17:05:02.046Z,100887.75
2023-05-19T17:08:05.741Z,100884.38
2023-05-19T17:11:08.293Z,100890.28
2023-05-19T17:14:11.078Z,100898.84
2023-05-19T17:17:13.519Z,100914.09
2023-05-19T17:20:16.290Z,100894.25
2023-05-19T17:23:18.697Z,100901.69
2023-05-19T17:26:22.167Z,100901.13
2023-05-19T17:29:24.809Z,100925.53
2023-05-19T17:32:29.111Z,100902.13
2023-05-19T17:35:33.413Z,100926.19
2023-05-19T17:38:40.113Z,100901.44
2023-05-19T17:41:43.693Z,100932.81
2023-05-19T17:44:46.173Z,100935.78
2023-05-19T17:47:48.673Z,100918.13
2023-05-19T17:50:51.122Z,100929.31
2023-05-19T17:53:53.933Z,100922.75
2023-05-19T17:56:58.582Z,100930.44
2023-05-19T18:00:01.553Z,100931.09
2023-05-19T18:03:06.247Z,100905.31
2023-05-19T18:06:09.190Z,100927.88
2023-05-19T18:09:14.334Z,100922.94
2023-05-19T18:12:17.575Z,100919.81
2023-05-19T18:15:19.984Z,100930.47
2023-05-19T18:18:22.442Z,100907.16
2023-05-19T18:21:25.303Z,100927.56
2023-05-19T18:24:27.775Z,100929.63
2023-05-19T18:27:31.409Z,100915.97
2023-05-19T18:30:34.037Z,100933.56
2023-05-19T18:33:36.711Z,100914.22
2023-05-19T18:36:39.075Z,100907.09
2023-05-19T18:39:41.453Z,100900.59
2023-05-19T18:42:43.951Z,100929.41
2023-05-19T18:45:49.310Z,100915.44
2023-05-19T18:48:51.741Z,100920.59
2023-05-19T18:51:54.204Z,100941.53
2023-05-19T18:54:56.710Z,100945.13
2023-05-19T18:57:59.240Z,100923.69
2023-05-19T19:01:01.715Z,100892.50
2023-05-19T19:04:04.340Z,100965.44
2023-05-19T19:07:06.857Z,100934.50
2023-05-19T19:10:09.617Z,100956.38
2023-05-19T19:13:12.074Z,100948.47
2023-05-19T19:16:14.538Z,100945.38
2023-05-19T19:19:17.018Z,100980.09
2023-05-19T19:22:19.490Z,100954.91
2023-05-19T19:25:23.534Z,100953.28
2023-05-19T19:28:26.557Z,100939.72
2023-05-19T19:31:29.103Z,100977.72
2023-05-19T19:34:31.735Z,100972.78
2023-05-19T19:37:34.106Z,100949.50
2023-05-19T19:40:36.805Z,100948.09
2023-05-19T19:43:39.374Z,100974.38
2023-05-19T19:46:41.808Z,100945.94
2023-05-19T19:49:45.842Z,100958.84
2023-05-19T19:52:48.293Z,100951.25
2023-05-19T19:55:57.648Z,100968.66
2023-05-19T19:59:00.283Z,100897.06
2023-05-19T20:02:02.849Z,100954.06
2023-05-19T20:05:05.839Z,100973.91
2023-05-19T20:08:08.650Z,100971.19
2023-05-19T20:11:11.132Z,100977.09
2023-05-19T20:14:13.515Z,100955.69
2023-05-19T20:17:16.030Z,100973.69
2023-05-19T20:20:18.440Z,100969.53
2023-05-19T20:23:21.330Z,100950.41
2023-05-19T20:26:24.374Z,100973.28
2023-05-19T20:29:27.329Z,100975.66
2023-05-19T20:32:29.742Z,100981.63
2023-05-19T20:35:32.363Z,100959.91
2023-05-19T20:38:34.998Z,100982.31
2023-05-19T20:41:37.492Z,100967.22
2023-05-19T20:44:39.865Z,100960.41
2023-05-19T20:47:42.259Z,100971.72
2023-05-19T20:50:44.745Z,100956.09
2023-05-19T20:53:47.201Z,100959.69
2023-05-19T20:56:51.087Z,100981.69
2023-05-19T20:59:53.561Z,100979.28
2023-05-19T21:02:56.046Z,100939.97
2023-05-19T21:05:58.507Z,100955.03
2023-05-19T21:09:03.807Z,100962.88
2023-05-19T21:12:06.338Z,100952.19
2023-05-19T21:15:09.870Z,100953.41
2023-05-19T21:18:12.835Z,100976.25
2023-05-19T21:21:15.396Z,100983.34
2023-05-19T21:24:17.875Z,100944.25
2023-05-19T21:27:20.385Z,100981.22
2023-05-19T21:30:23.639Z,100968.38
2023-05-19T21:33:26.019Z,101000.13
2023-05-19T21:36:28.445Z,101001.44
2023-05-19T21:39:30.821Z,101001.81
2023-05-19T21:42:33.183Z,101013.28
2023-05-19T21:45:35.616Z,100980.88
2023-05-19T21:48:38.077Z,100962.38
2023-05-19T21:51:40.582Z,100941.00
2023-05-19T21:54:43.148Z,100997.25
2023-05-19T21:57:45.546Z,100975.22
2023-05-19T22:00:50.008Z,100984.66
2023-05-19T22:03:53.077Z,100947.72
2023-05-19T22:06:55.507Z,100967.31
2023-05-19T22:09:57.855Z,100958.50
2023-05-19T22:13:00.274Z,100957.16
2023-05-19T22:16:04.673Z,100957.19
2023-05-19T22:19:07.368Z,100978.63
2023-05-19T22:22:14.419Z,100954.31
2023-05-19T22:25:17.149Z,100986.91
2023-05-19T22:28:19.531Z,100989.72
2023-05-19T22:31:21.952Z,101002.38
2023-05-19T22:34:24.390Z,100995.63
2023-05-19T22:37:28.889Z,100985.34
2023-05-19T22:40:32.544Z,100961.34
2023-05-19T22:43:35.202Z,100964.44
2023-05-19T22:46:37.684Z,100927.69
2023-05-19T22:49:41.277Z,100992.25
2023-05-19T22:52:43.727Z,100989.06
2023-05-19T22:55:46.228Z,100999.03
2023-05-19T22:58:48.642Z,100995.13
2023-05-19T23:01:51.134Z,100964.94
2023-05-19T23:04:53.622Z,100979.19
2023-05-19T23:07:56.173Z,100961.41
2023-05-19T23:11:02.280Z,100974.56
2023-05-19T23:14:04.764Z,100963.94
2023-05-19T23:17:07.390Z,100948.88
2023-05-19T23:20:10.640Z,100946.72
2023-05-19T23:23:13.223Z,100959.84
2023-05-19T23:26:15.655Z,100958.91
2023-05-19T23:29:18.136Z,100972.34
2023-05-19T23:32:20.537Z,100953.66
2023-05-19T23:35:22.906Z,100936.69
2023-05-19T23:38:25.740Z,100957.59
2023-05-19T23:41:28.198Z,100923.91
2023-05-19T23:44:30.705Z,100928.59
2023-05-19T23:47:33.089Z,100958.38
2023-05-19T23:50:35.723Z,100958.50
2023-05-19T23:53:38.228Z,100961.56
2023-05-19T23:56:40.786Z,100949.78
2023-05-19T23:59:43.179Z,100957.06
